sensor_id;sensor_type;location;lat;lon;timestamp;P1;durP1;ratioP1;P2;durP2;ratioP2
65583;SDS011;62116;43.582;1.470;2022-08-30T00:00:31;5.03;;;1.88;;
65583;SDS011;62116;43.582;1.470;2022-08-30T00:03:15;6.75;;;2.15;;
65583;SDS011;62116;43.582;1.470;2022-08-30T00:05:41;6.90;;;2.13;;
65583;SDS011;62116;43.582;1.470;2022-08-30T00:08:07;4.63;;;1.90;;
65583;SDS011;62116;43.582;1.470;2022-08-30T00:10:32;5.28;;;2.03;;
65583;SDS011;62116;43.582;1.470;2022-08-30T00:12:58;7.53;;;2.33;;
65583;SDS011;62116;43.582;1.470;2022-08-30T00:15:24;6.55;;;2.20;;
65583;SDS011;62116;43.582;1.470;2022-08-30T00:17:51;5.05;;;2.10;;
65583;SDS011;62116;43.582;1.470;2022-08-30T00:20:18;4.78;;;2.38;;
65583;SDS011;62116;43.582;1.470;2022-08-30T00:22:46;4.60;;;2.17;;
65583;SDS011;62116;43.582;1.470;2022-08-30T00:25:12;3.72;;;2.10;;
65583;SDS011;62116;43.582;1.470;2022-08-30T00:27:38;5.90;;;2.20;;
65583;SDS011;62116;43.582;1.470;2022-08-30T00:30:04;4.30;;;1.98;;
65583;SDS011;62116;43.582;1.470;2022-08-30T00:32:30;5.68;;;2.28;;
65583;SDS011;62116;43.582;1.470;2022-08-30T00:34:56;5.72;;;1.95;;
65583;SDS011;62116;43.582;1.470;2022-08-30T00:37:21;4.72;;;2.10;;
65583;SDS011;62116;43.582;1.470;2022-08-30T00:39:47;5.13;;;2.15;;
65583;SDS011;62116;43.582;1.470;2022-08-30T00:42:13;4.35;;;2.10;;
65583;SDS011;62116;43.582;1.470;2022-08-30T00:44:40;6.38;;;2.05;;
65583;SDS011;62116;43.582;1.470;2022-08-30T00:47:06;4.43;;;2.00;;
65583;SDS011;62116;43.582;1.470;2022-08-30T00:49:32;8.10;;;2.30;;
65583;SDS011;62116;43.582;1.470;2022-08-30T00:51:59;4.18;;;2.10;;
65583;SDS011;62116;43.582;1.470;2022-08-30T00:54:26;6.20;;;2.40;;
65583;SDS011;62116;43.582;1.470;2022-08-30T00:56:52;4.57;;;2.03;;
65583;SDS011;62116;43.582;1.470;2022-08-30T00:59:18;5.63;;;2.20;;
65583;SDS011;62116;43.582;1.470;2022-08-30T01:01:46;6.15;;;1.88;;
65583;SDS011;62116;43.582;1.470;2022-08-30T01:04:11;4.90;;;2.28;;
65583;SDS011;62116;43.582;1.470;2022-08-30T01:06:39;4.63;;;2.10;;
65583;SDS011;62116;43.582;1.470;2022-08-30T01:09:05;4.72;;;2.10;;
65583;SDS011;62116;43.582;1.470;2022-08-30T01:11:32;7.05;;;2.25;;
65583;SDS011;62116;43.582;1.470;2022-08-30T01:13:59;6.20;;;2.10;;
65583;SDS011;62116;43.582;1.470;2022-08-30T01:16:26;5.90;;;2.22;;
65583;SDS011;62116;43.582;1.470;2022-08-30T01:18:54;7.70;;;2.10;;
65583;SDS011;62116;43.582;1.470;2022-08-30T01:23:57;6.63;;;2.22;;
65583;SDS011;62116;43.582;1.470;2022-08-30T01:26:23;4.80;;;2.10;;
65583;SDS011;62116;43.582;1.470;2022-08-30T01:28:54;6.60;;;2.30;;
65583;SDS011;62116;43.582;1.470;2022-08-30T01:31:22;4.43;;;2.40;;
65583;SDS011;62116;43.582;1.470;2022-08-30T01:33:48;5.22;;;2.30;;
65583;SDS011;62116;43.582;1.470;2022-08-30T01:36:14;7.18;;;2.20;;
65583;SDS011;62116;43.582;1.470;2022-08-30T01:38:54;4.55;;;2.13;;
65583;SDS011;62116;43.582;1.470;2022-08-30T01:43:55;4.78;;;2.67;;
65583;SDS011;62116;43.582;1.470;2022-08-30T01:46:23;6.57;;;2.47;;
65583;SDS011;62116;43.582;1.470;2022-08-30T01:48:51;5.70;;;2.40;;
65583;SDS011;62116;43.582;1.470;2022-08-30T01:51:18;5.57;;;2.60;;
65583;SDS011;62116;43.582;1.470;2022-08-30T01:53:44;5.22;;;2.45;;
65583;SDS011;62116;43.582;1.470;2022-08-30T01:56:10;4.35;;;2.28;;
65583;SDS011;62116;43.582;1.470;2022-08-30T01:58:37;8.48;;;2.80;;
65583;SDS011;62116;43.582;1.470;2022-08-30T02:01:04;6.07;;;2.80;;
65583;SDS011;62116;43.582;1.470;2022-08-30T02:03:31;9.10;;;3.50;;
65583;SDS011;62116;43.582;1.470;2022-08-30T02:06:08;6.05;;;3.13;;
65583;SDS011;62116;43.582;1.470;2022-08-30T02:08:36;5.03;;;2.80;;
65583;SDS011;62116;43.582;1.470;2022-08-30T02:11:03;4.57;;;2.90;;
65583;SDS011;62116;43.582;1.470;2022-08-30T02:13:30;5.03;;;3.20;;
65583;SDS011;62116;43.582;1.470;2022-08-30T02:15:56;5.47;;;3.17;;
65583;SDS011;62116;43.582;1.470;2022-08-30T02:18:22;6.82;;;3.25;;
65583;SDS011;62116;43.582;1.470;2022-08-30T02:20:49;7.30;;;3.20;;
65583;SDS011;62116;43.582;1.470;2022-08-30T02:23:15;10.43;;;3.55;;
65583;SDS011;62116;43.582;1.470;2022-08-30T02:25:41;7.25;;;3.70;;
65583;SDS011;62116;43.582;1.470;2022-08-30T02:28:06;7.20;;;3.28;;
65583;SDS011;62116;43.582;1.470;2022-08-30T02:30:32;5.07;;;3.40;;
65583;SDS011;62116;43.582;1.470;2022-08-30T02:32:58;8.77;;;3.88;;
65583;SDS011;62116;43.582;1.470;2022-08-30T02:35:24;6.50;;;3.80;;
65583;SDS011;62116;43.582;1.470;2022-08-30T02:37:50;8.80;;;3.40;;
65583;SDS011;62116;43.582;1.470;2022-08-30T02:40:16;5.57;;;3.92;;
65583;SDS011;62116;43.582;1.470;2022-08-30T02:42:42;10.07;;;4.30;;
65583;SDS011;62116;43.582;1.470;2022-08-30T02:45:07;8.25;;;3.90;;
65583;SDS011;62116;43.582;1.470;2022-08-30T02:47:34;9.18;;;4.00;;
65583;SDS011;62116;43.582;1.470;2022-08-30T02:50:01;7.90;;;3.90;;
65583;SDS011;62116;43.582;1.470;2022-08-30T02:52:28;6.78;;;3.88;;
65583;SDS011;62116;43.582;1.470;2022-08-30T02:54:53;8.30;;;3.55;;
65583;SDS011;62116;43.582;1.470;2022-08-30T02:57:19;5.82;;;3.78;;
65583;SDS011;62116;43.582;1.470;2022-08-30T02:59:44;7.55;;;4.10;;
65583;SDS011;62116;43.582;1.470;2022-08-30T03:02:11;6.57;;;3.97;;
65583;SDS011;62116;43.582;1.470;2022-08-30T03:04:37;7.07;;;4.13;;
65583;SDS011;62116;43.582;1.470;2022-08-30T03:07:04;9.38;;;3.80;;
65583;SDS011;62116;43.582;1.470;2022-08-30T03:09:32;8.32;;;3.58;;
65583;SDS011;62116;43.582;1.470;2022-08-30T03:11:59;7.40;;;3.70;;
65583;SDS011;62116;43.582;1.470;2022-08-30T03:14:24;9.90;;;3.97;;
65583;SDS011;62116;43.582;1.470;2022-08-30T03:16:50;6.95;;;3.80;;
65583;SDS011;62116;43.582;1.470;2022-08-30T03:19:16;6.35;;;3.72;;
65583;SDS011;62116;43.582;1.470;2022-08-30T03:21:42;10.43;;;4.40;;
65583;SDS011;62116;43.582;1.470;2022-08-30T03:24:08;8.05;;;4.10;;
65583;SDS011;62116;43.582;1.470;2022-08-30T03:26:34;6.93;;;3.78;;
65583;SDS011;62116;43.582;1.470;2022-08-30T03:29:00;5.68;;;3.80;;
65583;SDS011;62116;43.582;1.470;2022-08-30T03:31:26;8.95;;;3.78;;
65583;SDS011;62116;43.582;1.470;2022-08-30T03:33:51;9.70;;;3.90;;
65583;SDS011;62116;43.582;1.470;2022-08-30T03:36:17;6.00;;;3.75;;
65583;SDS011;62116;43.582;1.470;2022-08-30T03:38:42;7.90;;;4.10;;
65583;SDS011;62116;43.582;1.470;2022-08-30T03:41:07;7.93;;;4.03;;
65583;SDS011;62116;43.582;1.470;2022-08-30T03:43:33;6.00;;;4.03;;
65583;SDS011;62116;43.582;1.470;2022-08-30T03:45:59;6.93;;;3.85;;
65583;SDS011;62116;43.582;1.470;2022-08-30T03:48:25;6.55;;;4.47;;
65583;SDS011;62116;43.582;1.470;2022-08-30T03:50:51;9.07;;;4.40;;
65583;SDS011;62116;43.582;1.470;2022-08-30T03:53:17;8.35;;;4.13;;
65583;SDS011;62116;43.582;1.470;2022-08-30T03:55:43;6.60;;;3.92;;
65583;SDS011;62116;43.582;1.470;2022-08-30T03:58:08;6.88;;;3.80;;
65583;SDS011;62116;43.582;1.470;2022-08-30T04:00:34;8.02;;;3.88;;
65583;SDS011;62116;43.582;1.470;2022-08-30T04:02:59;9.90;;;4.47;;
65583;SDS011;62116;43.582;1.470;2022-08-30T04:05:25;7.68;;;4.60;;
65583;SDS011;62116;43.582;1.470;2022-08-30T04:07:51;6.53;;;4.30;;
65583;SDS011;62116;43.582;1.470;2022-08-30T04:10:17;6.75;;;3.97;;
65583;SDS011;62116;43.582;1.470;2022-08-30T04:12:45;8.13;;;4.22;;
65583;SDS011;62116;43.582;1.470;2022-08-30T04:15:11;7.85;;;4.10;;
65583;SDS011;62116;43.582;1.470;2022-08-30T04:17:37;6.90;;;4.40;;
65583;SDS011;62116;43.582;1.470;2022-08-30T04:20:03;9.55;;;4.50;;
65583;SDS011;62116;43.582;1.470;2022-08-30T04:22:29;8.68;;;4.30;;
65583;SDS011;62116;43.582;1.470;2022-08-30T04:24:54;8.40;;;4.50;;
65583;SDS011;62116;43.582;1.470;2022-08-30T04:27:20;6.72;;;4.60;;
65583;SDS011;62116;43.582;1.470;2022-08-30T04:29:45;7.43;;;4.05;;
65583;SDS011;62116;43.582;1.470;2022-08-30T04:32:11;7.15;;;4.32;;
65583;SDS011;62116;43.582;1.470;2022-08-30T04:34:37;6.15;;;4.22;;
65583;SDS011;62116;43.582;1.470;2022-08-30T04:37:03;8.48;;;4.15;;
65583;SDS011;62116;43.582;1.470;2022-08-30T04:39:28;6.93;;;4.18;;
65583;SDS011;62116;43.582;1.470;2022-08-30T04:41:54;8.55;;;4.40;;
65583;SDS011;62116;43.582;1.470;2022-08-30T04:44:20;9.90;;;3.90;;
65583;SDS011;62116;43.582;1.470;2022-08-30T04:46:46;5.63;;;4.15;;
65583;SDS011;62116;43.582;1.470;2022-08-30T04:49:11;7.55;;;4.63;;
65583;SDS011;62116;43.582;1.470;2022-08-30T04:51:37;8.38;;;4.38;;
65583;SDS011;62116;43.582;1.470;2022-08-30T04:54:04;7.20;;;4.22;;
65583;SDS011;62116;43.582;1.470;2022-08-30T04:56:29;6.13;;;4.18;;
65583;SDS011;62116;43.582;1.470;2022-08-30T04:58:54;6.90;;;3.95;;
65583;SDS011;62116;43.582;1.470;2022-08-30T05:01:22;8.10;;;4.50;;
65583;SDS011;62116;43.582;1.470;2022-08-30T05:03:52;7.93;;;4.32;;
65583;SDS011;62116;43.582;1.470;2022-08-30T05:06:19;7.38;;;4.07;;
65583;SDS011;62116;43.582;1.470;2022-08-30T05:08:46;6.68;;;4.10;;
65583;SDS011;62116;43.582;1.470;2022-08-30T05:11:11;6.72;;;4.43;;
65583;SDS011;62116;43.582;1.470;2022-08-30T05:13:38;6.60;;;4.45;;
65583;SDS011;62116;43.582;1.470;2022-08-30T05:16:04;9.43;;;4.45;;
65583;SDS011;62116;43.582;1.470;2022-08-30T05:18:32;8.65;;;4.20;;
65583;SDS011;62116;43.582;1.470;2022-08-30T05:21:02;6.70;;;4.18;;
65583;SDS011;62116;43.582;1.470;2022-08-30T05:23:28;9.48;;;4.28;;
65583;SDS011;62116;43.582;1.470;2022-08-30T05:25:54;9.02;;;4.05;;
65583;SDS011;62116;43.582;1.470;2022-08-30T05:28:19;7.93;;;3.92;;
65583;SDS011;62116;43.582;1.470;2022-08-30T05:30:44;7.18;;;3.78;;
65583;SDS011;62116;43.582;1.470;2022-08-30T05:33:10;9.82;;;3.92;;
65583;SDS011;62116;43.582;1.470;2022-08-30T05:35:35;8.82;;;3.60;;
65583;SDS011;62116;43.582;1.470;2022-08-30T05:38:01;6.22;;;3.50;;
65583;SDS011;62116;43.582;1.470;2022-08-30T05:40:27;7.45;;;3.47;;
65583;SDS011;62116;43.582;1.470;2022-08-30T05:42:52;7.57;;;3.47;;
65583;SDS011;62116;43.582;1.470;2022-08-30T05:45:18;5.55;;;3.58;;
65583;SDS011;62116;43.582;1.470;2022-08-30T05:47:43;8.20;;;3.00;;
65583;SDS011;62116;43.582;1.470;2022-08-30T05:50:08;6.40;;;3.00;;
65583;SDS011;62116;43.582;1.470;2022-08-30T05:52:35;12.73;;;3.90;;
65583;SDS011;62116;43.582;1.470;2022-08-30T05:55:02;7.53;;;3.58;;
65583;SDS011;62116;43.582;1.470;2022-08-30T05:57:30;9.63;;;3.55;;
65583;SDS011;62116;43.582;1.470;2022-08-30T05:59:57;7.43;;;3.22;;
65583;SDS011;62116;43.582;1.470;2022-08-30T06:02:22;9.63;;;3.53;;
65583;SDS011;62116;43.582;1.470;2022-08-30T06:04:47;8.98;;;3.55;;
65583;SDS011;62116;43.582;1.470;2022-08-30T06:07:13;9.63;;;3.88;;
65583;SDS011;62116;43.582;1.470;2022-08-30T06:09:38;6.45;;;3.55;;
65583;SDS011;62116;43.582;1.470;2022-08-30T06:12:04;8.82;;;4.22;;
65583;SDS011;62116;43.582;1.470;2022-08-30T06:14:29;9.32;;;4.10;;
65583;SDS011;62116;43.582;1.470;2022-08-30T06:16:55;8.80;;;3.97;;
65583;SDS011;62116;43.582;1.470;2022-08-30T06:19:21;10.30;;;3.92;;
65583;SDS011;62116;43.582;1.470;2022-08-30T06:21:47;9.57;;;4.10;;
65583;SDS011;62116;43.582;1.470;2022-08-30T06:24:13;7.93;;;3.88;;
65583;SDS011;62116;43.582;1.470;2022-08-30T06:26:40;10.75;;;3.75;;
65583;SDS011;62116;43.582;1.470;2022-08-30T06:29:09;8.32;;;3.50;;
65583;SDS011;62116;43.582;1.470;2022-08-30T06:31:36;8.52;;;3.80;;
65583;SDS011;62116;43.582;1.470;2022-08-30T06:34:02;8.63;;;3.90;;
65583;SDS011;62116;43.582;1.470;2022-08-30T06:36:28;8.20;;;3.47;;
65583;SDS011;62116;43.582;1.470;2022-08-30T06:38:54;7.15;;;4.13;;
65583;SDS011;62116;43.582;1.470;2022-08-30T06:41:22;9.70;;;4.18;;
65583;SDS011;62116;43.582;1.470;2022-08-30T06:43:49;9.70;;;3.60;;
65583;SDS011;62116;43.582;1.470;2022-08-30T06:46:16;7.90;;;3.88;;
65583;SDS011;62116;43.582;1.470;2022-08-30T06:48:44;8.02;;;3.85;;
65583;SDS011;62116;43.582;1.470;2022-08-30T06:51:09;10.43;;;3.80;;
65583;SDS011;62116;43.582;1.470;2022-08-30T06:53:35;11.43;;;3.67;;
65583;SDS011;62116;43.582;1.470;2022-08-30T06:56:03;7.93;;;3.58;;
65583;SDS011;62116;43.582;1.470;2022-08-30T06:58:31;8.13;;;3.42;;
65583;SDS011;62116;43.582;1.470;2022-08-30T07:00:58;10.57;;;3.72;;
65583;SDS011;62116;43.582;1.470;2022-08-30T07:03:24;8.43;;;3.45;;
65583;SDS011;62116;43.582;1.470;2022-08-30T07:05:53;7.97;;;3.60;;
65583;SDS011;62116;43.582;1.470;2022-08-30T07:08:19;7.00;;;3.33;;
65583;SDS011;62116;43.582;1.470;2022-08-30T07:10:47;8.93;;;3.30;;
65583;SDS011;62116;43.582;1.470;2022-08-30T07:13:13;7.15;;;2.97;;
65583;SDS011;62116;43.582;1.470;2022-08-30T07:15:42;8.40;;;3.05;;
65583;SDS011;62116;43.582;1.470;2022-08-30T07:18:09;6.40;;;3.30;;
65583;SDS011;62116;43.582;1.470;2022-08-30T07:20:54;5.55;;;2.50;;
65583;SDS011;62116;43.582;1.470;2022-08-30T07:23:19;4.93;;;2.80;;
65583;SDS011;62116;43.582;1.470;2022-08-30T07:25:45;7.03;;;2.65;;
65583;SDS011;62116;43.582;1.470;2022-08-30T07:28:10;7.35;;;2.70;;
65583;SDS011;62116;43.582;1.470;2022-08-30T07:30:37;5.78;;;2.40;;
65583;SDS011;62116;43.582;1.470;2022-08-30T07:33:03;8.57;;;2.50;;
65583;SDS011;62116;43.582;1.470;2022-08-30T07:35:28;7.22;;;2.53;;
65583;SDS011;62116;43.582;1.470;2022-08-30T07:37:55;5.88;;;2.33;;
65583;SDS011;62116;43.582;1.470;2022-08-30T07:40:21;6.72;;;2.70;;
65583;SDS011;62116;43.582;1.470;2022-08-30T07:42:46;6.00;;;2.42;;
65583;SDS011;62116;43.582;1.470;2022-08-30T07:45:12;8.50;;;2.80;;
65583;SDS011;62116;43.582;1.470;2022-08-30T07:47:37;6.82;;;2.45;;
65583;SDS011;62116;43.582;1.470;2022-08-30T07:50:04;7.68;;;2.80;;
65583;SDS011;62116;43.582;1.470;2022-08-30T07:52:30;7.40;;;2.70;;
65583;SDS011;62116;43.582;1.470;2022-08-30T07:54:56;7.10;;;2.70;;
65583;SDS011;62116;43.582;1.470;2022-08-30T07:57:23;6.43;;;2.63;;
65583;SDS011;62116;43.582;1.470;2022-08-30T07:59:49;8.70;;;2.75;;
65583;SDS011;62116;43.582;1.470;2022-08-30T08:02:15;5.65;;;2.60;;
65583;SDS011;62116;43.582;1.470;2022-08-30T08:04:41;7.97;;;2.60;;
65583;SDS011;62116;43.582;1.470;2022-08-30T08:07:06;8.52;;;2.70;;
65583;SDS011;62116;43.582;1.470;2022-08-30T08:09:32;4.43;;;2.53;;
65583;SDS011;62116;43.582;1.470;2022-08-30T08:12:02;7.88;;;2.50;;
65583;SDS011;62116;43.582;1.470;2022-08-30T08:14:29;12.10;;;3.10;;
65583;SDS011;62116;43.582;1.470;2022-08-30T08:16:54;6.15;;;2.60;;
65583;SDS011;62116;43.582;1.470;2022-08-30T08:19:19;11.00;;;2.70;;
65583;SDS011;62116;43.582;1.470;2022-08-30T08:21:45;8.38;;;2.60;;
65583;SDS011;62116;43.582;1.470;2022-08-30T08:24:11;7.65;;;2.63;;
65583;SDS011;62116;43.582;1.470;2022-08-30T08:26:37;11.48;;;3.05;;
65583;SDS011;62116;43.582;1.470;2022-08-30T08:29:03;8.38;;;2.63;;
65583;SDS011;62116;43.582;1.470;2022-08-30T08:31:30;9.38;;;2.45;;
65583;SDS011;62116;43.582;1.470;2022-08-30T08:33:56;7.80;;;2.67;;
65583;SDS011;62116;43.582;1.470;2022-08-30T08:36:24;10.45;;;2.50;;
65583;SDS011;62116;43.582;1.470;2022-08-30T08:38:50;8.27;;;2.20;;
65583;SDS011;62116;43.582;1.470;2022-08-30T08:43:56;7.13;;;2.22;;
65583;SDS011;62116;43.582;1.470;2022-08-30T08:46:31;5.18;;;2.30;;
65583;SDS011;62116;43.582;1.470;2022-08-30T08:49:08;6.55;;;2.35;;
65583;SDS011;62116;43.582;1.470;2022-08-30T08:51:35;9.52;;;2.03;;
65583;SDS011;62116;43.582;1.470;2022-08-30T08:57:12;6.53;;;2.28;;
65583;SDS011;62116;43.582;1.470;2022-08-30T08:59:38;5.95;;;2.10;;
65583;SDS011;62116;43.582;1.470;2022-08-30T09:02:11;6.35;;;2.42;;
65583;SDS011;62116;43.582;1.470;2022-08-30T09:04:43;8.05;;;2.10;;
65583;SDS011;62116;43.582;1.470;2022-08-30T09:07:23;6.22;;;2.08;;
65583;SDS011;62116;43.582;1.470;2022-08-30T09:09:51;5.85;;;2.25;;
65583;SDS011;62116;43.582;1.470;2022-08-30T09:12:17;7.38;;;2.28;;
65583;SDS011;62116;43.582;1.470;2022-08-30T09:14:55;7.93;;;2.22;;
65583;SDS011;62116;43.582;1.470;2022-08-30T09:25:52;7.90;;;2.10;;
65583;SDS011;62116;43.582;1.470;2022-08-30T09:28:28;6.25;;;2.10;;
65583;SDS011;62116;43.582;1.470;2022-08-30T09:31:02;10.40;;;2.25;;
65583;SDS011;62116;43.582;1.470;2022-08-30T09:33:32;7.82;;;2.30;;
65583;SDS011;62116;43.582;1.470;2022-08-30T09:39:01;7.05;;;2.10;;
65583;SDS011;62116;43.582;1.470;2022-08-30T09:46:45;7.38;;;2.15;;
65583;SDS011;62116;43.582;1.470;2022-08-30T09:49:35;5.97;;;2.38;;
65583;SDS011;62116;43.582;1.470;2022-08-30T09:57:10;6.25;;;2.53;;
65583;SDS011;62116;43.582;1.470;2022-08-30T10:00:01;9.93;;;2.30;;
65583;SDS011;62116;43.582;1.470;2022-08-30T10:02:39;13.07;;;2.50;;
65583;SDS011;62116;43.582;1.470;2022-08-30T10:05:21;8.90;;;2.47;;
65583;SDS011;62116;43.582;1.470;2022-08-30T10:13:48;5.88;;;2.20;;
65583;SDS011;62116;43.582;1.470;2022-08-30T10:22:14;7.85;;;2.20;;
65583;SDS011;62116;43.582;1.470;2022-08-30T10:25:08;7.90;;;2.28;;
65583;SDS011;62116;43.582;1.470;2022-08-30T10:27:37;6.60;;;2.72;;
65583;SDS011;62116;43.582;1.470;2022-08-30T10:30:12;10.02;;;2.10;;
65583;SDS011;62116;43.582;1.470;2022-08-30T10:35:24;6.50;;;1.95;;
65583;SDS011;62116;43.582;1.470;2022-08-30T10:38:02;8.07;;;2.22;;
65583;SDS011;62116;43.582;1.470;2022-08-30T10:40:36;9.10;;;2.92;;
65583;SDS011;62116;43.582;1.470;2022-08-30T10:43:33;5.93;;;2.30;;
65583;SDS011;62116;43.582;1.470;2022-08-30T10:49:22;8.82;;;2.40;;
65583;SDS011;62116;43.582;1.470;2022-08-30T10:51:53;6.63;;;2.30;;
65583;SDS011;62116;43.582;1.470;2022-08-30T10:54:26;8.27;;;2.38;;
65583;SDS011;62116;43.582;1.470;2022-08-30T10:56:59;7.70;;;2.53;;
65583;SDS011;62116;43.582;1.470;2022-08-30T10:59:24;10.75;;;2.40;;
65583;SDS011;62116;43.582;1.470;2022-08-30T11:13:02;12.32;;;2.50;;
65583;SDS011;62116;43.582;1.470;2022-08-30T11:16:05;5.25;;;2.40;;
65583;SDS011;62116;43.582;1.470;2022-08-30T11:18:41;6.72;;;2.20;;
65583;SDS011;62116;43.582;1.470;2022-08-30T11:21:33;7.38;;;2.30;;
65583;SDS011;62116;43.582;1.470;2022-08-30T11:26:54;8.75;;;2.60;;
65583;SDS011;62116;43.582;1.470;2022-08-30T11:31:51;7.60;;;2.33;;
65583;SDS011;62116;43.582;1.470;2022-08-30T11:37:31;7.10;;;2.30;;
65583;SDS011;62116;43.582;1.470;2022-08-30T11:40:03;5.40;;;2.03;;
65583;SDS011;62116;43.582;1.470;2022-08-30T11:42:38;8.90;;;2.58;;
65583;SDS011;62116;43.582;1.470;2022-08-30T11:47:50;6.75;;;2.25;;
65583;SDS011;62116;43.582;1.470;2022-08-30T11:50:28;9.35;;;2.60;;
65583;SDS011;62116;43.582;1.470;2022-08-30T11:53:31;9.00;;;2.20;;
65583;SDS011;62116;43.582;1.470;2022-08-30T11:56:13;8.82;;;2.10;;
65583;SDS011;62116;43.582;1.470;2022-08-30T11:58:59;5.82;;;2.30;;
65583;SDS011;62116;43.582;1.470;2022-08-30T12:01:37;8.25;;;2.47;;
65583;SDS011;62116;43.582;1.470;2022-08-30T12:09:07;7.78;;;2.30;;
65583;SDS011;62116;43.582;1.470;2022-08-30T12:14:00;9.13;;;2.42;;
65583;SDS011;62116;43.582;1.470;2022-08-30T12:16:36;9.45;;;2.30;;
65583;SDS011;62116;43.582;1.470;2022-08-30T12:19:27;8.27;;;2.55;;
65583;SDS011;62116;43.582;1.470;2022-08-30T12:21:56;7.10;;;2.25;;
65583;SDS011;62116;43.582;1.470;2022-08-30T12:24:33;8.68;;;2.50;;
65583;SDS011;62116;43.582;1.470;2022-08-30T12:29:57;8.77;;;2.50;;
65583;SDS011;62116;43.582;1.470;2022-08-30T12:32:25;7.50;;;2.72;;
65583;SDS011;62116;43.582;1.470;2022-08-30T12:34:52;8.18;;;2.70;;
65583;SDS011;62116;43.582;1.470;2022-08-30T12:37:35;9.23;;;2.90;;
65583;SDS011;62116;43.582;1.470;2022-08-30T12:42:32;6.60;;;2.80;;
65583;SDS011;62116;43.582;1.470;2022-08-30T12:45:09;7.88;;;2.60;;
65583;SDS011;62116;43.582;1.470;2022-08-30T12:47:44;8.80;;;2.45;;
65583;SDS011;62116;43.582;1.470;2022-08-30T12:50:14;8.35;;;2.60;;
65583;SDS011;62116;43.582;1.470;2022-08-30T12:52:46;7.07;;;2.50;;
65583;SDS011;62116;43.582;1.470;2022-08-30T12:55:21;7.95;;;2.33;;
65583;SDS011;62116;43.582;1.470;2022-08-30T13:00:47;9.80;;;2.65;;
65583;SDS011;62116;43.582;1.470;2022-08-30T13:06:02;6.38;;;2.58;;
65583;SDS011;62116;43.582;1.470;2022-08-30T13:08:36;6.07;;;2.58;;
65583;SDS011;62116;43.582;1.470;2022-08-30T13:13:56;7.63;;;2.40;;
65583;SDS011;62116;43.582;1.470;2022-08-30T13:16:42;6.28;;;2.50;;
65583;SDS011;62116;43.582;1.470;2022-08-30T13:21:52;6.45;;;2.72;;
65583;SDS011;62116;43.582;1.470;2022-08-30T13:24:19;12.20;;;2.80;;
65583;SDS011;62116;43.582;1.470;2022-08-30T13:26:44;6.75;;;2.70;;
65583;SDS011;62116;43.582;1.470;2022-08-30T13:29:18;9.18;;;3.05;;
65583;SDS011;62116;43.582;1.470;2022-08-30T13:31:46;12.18;;;3.15;;
65583;SDS011;62116;43.582;1.470;2022-08-30T13:34:11;7.05;;;2.97;;
65583;SDS011;62116;43.582;1.470;2022-08-30T13:36:56;8.95;;;3.20;;
65583;SDS011;62116;43.582;1.470;2022-08-30T13:39:22;7.78;;;3.17;;
65583;SDS011;62116;43.582;1.470;2022-08-30T13:41:48;10.18;;;3.22;;
65583;SDS011;62116;43.582;1.470;2022-08-30T13:44:14;9.95;;;3.17;;
65583;SDS011;62116;43.582;1.470;2022-08-30T13:46:40;7.00;;;2.80;;
65583;SDS011;62116;43.582;1.470;2022-08-30T13:49:09;7.97;;;2.95;;
65583;SDS011;62116;43.582;1.470;2022-08-30T13:51:40;10.85;;;2.85;;
65583;SDS011;62116;43.582;1.470;2022-08-30T13:54:06;8.77;;;2.95;;
65583;SDS011;62116;43.582;1.470;2022-08-30T13:56:31;8.63;;;3.05;;
65583;SDS011;62116;43.582;1.470;2022-08-30T13:59:00;8.23;;;3.05;;
65583;SDS011;62116;43.582;1.470;2022-08-30T14:01:26;7.80;;;2.97;;
65583;SDS011;62116;43.582;1.470;2022-08-30T14:03:53;7.78;;;3.00;;
65583;SDS011;62116;43.582;1.470;2022-08-30T14:06:18;5.55;;;2.90;;
65583;SDS011;62116;43.582;1.470;2022-08-30T14:08:44;8.68;;;2.90;;
65583;SDS011;62116;43.582;1.470;2022-08-30T14:11:09;8.63;;;2.70;;
65583;SDS011;62116;43.582;1.470;2022-08-30T14:13:36;6.95;;;2.75;;
65583;SDS011;62116;43.582;1.470;2022-08-30T14:16:04;6.53;;;2.95;;
65583;SDS011;62116;43.582;1.470;2022-08-30T14:18:31;8.43;;;3.08;;
65583;SDS011;62116;43.582;1.470;2022-08-30T14:20:57;7.47;;;3.08;;
65583;SDS011;62116;43.582;1.470;2022-08-30T14:23:24;7.90;;;2.80;;
65583;SDS011;62116;43.582;1.470;2022-08-30T14:25:50;9.75;;;2.50;;
65583;SDS011;62116;43.582;1.470;2022-08-30T14:28:16;11.15;;;3.13;;
65583;SDS011;62116;43.582;1.470;2022-08-30T14:30:41;6.57;;;2.70;;
65583;SDS011;62116;43.582;1.470;2022-08-30T14:33:07;9.60;;;2.83;;
65583;SDS011;62116;43.582;1.470;2022-08-30T14:35:32;7.07;;;2.85;;
65583;SDS011;62116;43.582;1.470;2022-08-30T14:37:58;6.95;;;2.65;;
65583;SDS011;62116;43.582;1.470;2022-08-30T14:40:23;7.85;;;2.72;;
65583;SDS011;62116;43.582;1.470;2022-08-30T14:42:48;10.38;;;2.55;;
65583;SDS011;62116;43.582;1.470;2022-08-30T14:45:14;7.93;;;2.45;;
65583;SDS011;62116;43.582;1.470;2022-08-30T14:47:39;8.32;;;2.40;;
65583;SDS011;62116;43.582;1.470;2022-08-30T14:50:05;5.80;;;2.25;;
65583;SDS011;62116;43.582;1.470;2022-08-30T14:52:31;6.65;;;2.30;;
65583;SDS011;62116;43.582;1.470;2022-08-30T14:54:58;9.57;;;2.50;;
65583;SDS011;62116;43.582;1.470;2022-08-30T14:57:24;5.40;;;2.10;;
65583;SDS011;62116;43.582;1.470;2022-08-30T14:59:50;6.15;;;2.50;;
65583;SDS011;62116;43.582;1.470;2022-08-30T15:02:15;9.70;;;2.00;;
65583;SDS011;62116;43.582;1.470;2022-08-30T15:04:41;6.40;;;2.00;;
65583;SDS011;62116;43.582;1.470;2022-08-30T15:07:07;10.68;;;2.40;;
65583;SDS011;62116;43.582;1.470;2022-08-30T15:09:32;5.95;;;2.40;;
65583;SDS011;62116;43.582;1.470;2022-08-30T15:11:58;6.82;;;2.30;;
65583;SDS011;62116;43.582;1.470;2022-08-30T15:14:25;6.57;;;2.33;;
65583;SDS011;62116;43.582;1.470;2022-08-30T15:16:52;11.63;;;2.75;;
65583;SDS011;62116;43.582;1.470;2022-08-30T15:19:18;7.07;;;2.33;;
65583;SDS011;62116;43.582;1.470;2022-08-30T15:21:44;6.05;;;2.30;;
65583;SDS011;62116;43.582;1.470;2022-08-30T15:24:19;8.88;;;2.40;;
65583;SDS011;62116;43.582;1.470;2022-08-30T15:26:46;5.60;;;2.20;;
65583;SDS011;62116;43.582;1.470;2022-08-30T15:29:13;6.75;;;2.30;;
65583;SDS011;62116;43.582;1.470;2022-08-30T15:31:42;7.13;;;2.30;;
65583;SDS011;62116;43.582;1.470;2022-08-30T15:34:09;4.20;;;2.05;;
65583;SDS011;62116;43.582;1.470;2022-08-30T15:36:37;9.35;;;2.67;;
65583;SDS011;62116;43.582;1.470;2022-08-30T15:39:03;8.80;;;2.58;;
65583;SDS011;62116;43.582;1.470;2022-08-30T15:41:29;8.52;;;2.47;;
65583;SDS011;62116;43.582;1.470;2022-08-30T15:43:55;7.45;;;2.30;;
65583;SDS011;62116;43.582;1.470;2022-08-30T15:46:33;7.75;;;2.40;;
65583;SDS011;62116;43.582;1.470;2022-08-30T15:49:01;8.85;;;2.50;;
65583;SDS011;62116;43.582;1.470;2022-08-30T15:51:38;6.72;;;2.60;;
65583;SDS011;62116;43.582;1.470;2022-08-30T15:54:05;6.75;;;2.53;;
65583;SDS011;62116;43.582;1.470;2022-08-30T15:56:31;5.57;;;2.30;;
65583;SDS011;62116;43.582;1.470;2022-08-30T15:58:57;8.30;;;2.13;;
65583;SDS011;62116;43.582;1.470;2022-08-30T16:01:22;9.15;;;2.40;;
65583;SDS011;62116;43.582;1.470;2022-08-30T16:03:48;10.75;;;2.40;;
65583;SDS011;62116;43.582;1.470;2022-08-30T16:06:15;6.78;;;2.47;;
65583;SDS011;62116;43.582;1.470;2022-08-30T16:08:44;7.95;;;2.28;;
65583;SDS011;62116;43.582;1.470;2022-08-30T16:11:11;6.47;;;2.28;;
65583;SDS011;62116;43.582;1.470;2022-08-30T16:13:37;4.50;;;2.22;;
65583;SDS011;62116;43.582;1.470;2022-08-30T16:16:04;7.10;;;2.20;;
65583;SDS011;62116;43.582;1.470;2022-08-30T16:18:31;11.00;;;2.33;;
65583;SDS011;62116;43.582;1.470;2022-08-30T16:21:32;7.95;;;2.30;;
65583;SDS011;62116;43.582;1.470;2022-08-30T16:23:55;11.00;;;2.05;;
65583;SDS011;62116;43.582;1.470;2022-08-30T16:28:48;12.32;;;2.38;;
65583;SDS011;62116;43.582;1.470;2022-08-30T16:31:14;9.65;;;2.30;;